createdAt,value
2018-12-13T00:00:44.289Z,4.10
2018-12-13T00:03:17.356Z,4.43
2018-12-13T00:05:49.655Z,3.20
2018-12-13T00:08:26.098Z,3.60
2018-12-13T00:10:59.403Z,2.83
2018-12-13T00:13:37.268Z,3.00
2018-12-13T00:16:10.690Z,3.80
2018-12-13T00:18:44.521Z,3.13
2018-12-13T00:21:19.247Z,3.40
2018-12-13T00:23:54.257Z,4.00
2018-12-13T00:26:28.571Z,3.23
2018-12-13T00:31:41.572Z,3.83
2018-12-13T00:34:15.925Z,3.83
2018-12-13T00:36:48.868Z,3.77
2018-12-13T00:39:21.872Z,3.43
2018-12-13T00:42:07.843Z,3.30
2018-12-13T00:54:22.143Z,3.80
2018-12-13T00:57:17.749Z,3.80
2018-12-13T00:59:51.074Z,3.27
2018-12-13T01:02:27.641Z,3.80
2018-12-13T01:05:00.589Z,4.30
2018-12-13T01:07:37.194Z,3.90
2018-12-13T01:10:10.055Z,3.67
2018-12-13T01:12:43.810Z,4.13
2018-12-13T01:15:16.312Z,4.10
2018-12-13T01:17:57.230Z,5.03
2018-12-13T01:26:42.027Z,3.87
2018-12-13T01:29:15.195Z,5.33
2018-12-13T01:31:48.363Z,5.00
2018-12-13T01:34:21.352Z,4.00
2018-12-13T01:36:54.983Z,4.50
2018-12-13T01:39:31.553Z,4.63
2018-12-13T01:42:10.533Z,4.93
2018-12-13T01:44:43.741Z,4.90
2018-12-13T01:50:02.583Z,4.90
2018-12-13T01:52:39.542Z,4.43
2018-12-13T01:55:13.094Z,5.50
2018-12-13T01:57:52.541Z,5.10
2018-12-13T02:00:26.289Z,4.73
2018-12-13T02:03:07.919Z,4.50
2018-12-13T02:05:40.914Z,4.20
2018-12-13T02:08:14.848Z,5.13
2018-12-13T02:10:51.349Z,4.60
2018-12-13T02:13:25.814Z,4.50
2018-12-13T02:15:58.356Z,3.87
2018-12-13T02:18:31.660Z,4.90
2018-12-13T02:21:05.216Z,4.97
2018-12-13T02:23:40.601Z,5.13
2018-12-13T02:26:13.519Z,5.97
2018-12-13T02:28:47.330Z,6.07
2018-12-13T02:31:19.949Z,5.67
2018-12-13T02:33:53.984Z,5.57
2018-12-13T02:36:26.563Z,5.53
2018-12-13T02:39:01.122Z,6.07
2018-12-13T02:41:33.834Z,6.50
2018-12-13T02:44:07.465Z,5.10
2018-12-13T02:46:41.586Z,4.70
2018-12-13T02:49:15.249Z,4.83
2018-12-13T02:51:47.965Z,4.90
2018-12-13T02:54:21.274Z,4.10
2018-12-13T02:56:53.786Z,5.30
2018-12-13T02:59:27.116Z,5.50
2018-12-13T03:02:05.873Z,4.13
2018-12-13T03:04:39.012Z,4.90
2018-12-13T03:07:14.046Z,4.27
2018-12-13T03:09:46.941Z,5.03
2018-12-13T03:12:19.453Z,5.07
2018-12-13T03:14:52.614Z,4.47
2018-12-13T03:17:25.772Z,4.87
2018-12-13T03:19:59.881Z,5.07
2018-12-13T03:22:33.221Z,4.70
2018-12-13T03:25:06.907Z,4.10
2018-12-13T03:27:40.936Z,3.93
2018-12-13T03:30:14.794Z,5.57
2018-12-13T03:32:48.509Z,6.77
2018-12-13T03:35:21.780Z,5.53
2018-12-13T03:37:54.285Z,5.17
2018-12-13T03:40:27.570Z,6.27
2018-12-13T03:43:00.209Z,6.53
2018-12-13T03:45:34.464Z,4.47
2018-12-13T03:50:49.017Z,5.80
2018-12-13T03:53:21.742Z,4.57
2018-12-13T03:59:15.288Z,4.60
2018-12-13T04:01:48.757Z,4.83
2018-12-13T04:04:21.629Z,3.90
2018-12-13T04:06:54.534Z,6.17
2018-12-13T04:09:28.045Z,5.37
2018-12-13T04:12:02.021Z,5.20
2018-12-13T04:14:34.492Z,6.20
2018-12-13T04:17:07.134Z,5.30
2018-12-13T04:19:39.445Z,6.33
2018-12-13T04:22:12.146Z,6.53
2018-12-13T04:24:44.431Z,6.10
2018-12-13T04:27:16.712Z,6.47
2018-12-13T04:29:49.841Z,5.07
2018-12-13T04:32:24.881Z,6.63
2018-12-13T04:34:57.943Z,4.43
2018-12-13T04:37:35.299Z,4.87
2018-12-13T04:40:04.782Z,4.73
2018-12-13T04:42:37.581Z,4.63
2018-12-13T04:45:09.951Z,4.47
2018-12-13T04:47:42.933Z,4.83
2018-12-13T04:50:15.419Z,4.90
2018-12-13T04:52:47.868Z,4.43
2018-12-13T04:55:21.043Z,5.20
2018-12-13T04:57:53.345Z,6.00
2018-12-13T05:00:25.604Z,5.90
2018-12-13T05:02:58.755Z,4.77
2018-12-13T05:05:31.031Z,4.50
2018-12-13T05:08:03.246Z,4.83
2018-12-13T05:10:59.103Z,4.97
2018-12-13T05:13:31.371Z,5.67
2018-12-13T05:16:04.576Z,5.13
2018-12-13T05:18:37.151Z,5.33
2018-12-13T05:21:09.409Z,4.77
2018-12-13T05:23:41.759Z,4.13
2018-12-13T05:29:35.710Z,4.53
2018-12-13T05:32:08.559Z,4.57
2018-12-13T05:34:42.194Z,5.37
2018-12-13T05:37:15.092Z,5.40
2018-12-13T05:39:48.076Z,5.10
2018-12-13T05:42:21.029Z,4.67
2018-12-13T05:44:53.976Z,4.93
2018-12-13T05:47:27.625Z,4.47
2018-12-13T05:50:00.621Z,4.70
2018-12-13T05:55:54.356Z,3.60
2018-12-13T05:58:26.582Z,3.90
2018-12-13T06:00:59.172Z,4.50
2018-12-13T06:03:31.668Z,3.80
2018-12-13T06:06:03.849Z,3.73
2018-12-13T06:08:36.061Z,4.30
2018-12-13T06:11:08.223Z,6.13
2018-12-13T06:13:40.340Z,11.23
2018-12-13T06:16:12.518Z,8.13
2018-12-13T06:18:44.692Z,6.87
2018-12-13T06:21:16.928Z,10.23
2018-12-13T06:23:49.133Z,9.07
2018-12-13T06:26:26.200Z,5.83
2018-12-13T06:29:00.992Z,5.00
2018-12-13T06:31:33.094Z,4.83
2018-12-13T06:34:05.351Z,4.60
2018-12-13T06:36:40.807Z,5.97
2018-12-13T06:39:15.556Z,5.20
2018-12-13T06:41:50.402Z,5.23
2018-12-13T06:44:25.650Z,4.30
2018-12-13T06:47:01.173Z,4.73
2018-12-13T06:49:38.028Z,4.17
2018-12-13T06:52:10.410Z,5.47
2018-12-13T06:54:42.582Z,5.20
2018-12-13T06:57:14.879Z,5.23
2018-12-13T06:59:47.016Z,5.17
2018-12-13T07:02:19.139Z,4.17
2018-12-13T07:08:18.475Z,3.37
2018-12-13T07:10:51.781Z,3.00
2018-12-13T07:13:24.863Z,3.10
2018-12-13T07:15:57.921Z,2.23
2018-12-13T07:21:51.799Z,3.57
2018-12-13T07:24:24.719Z,3.70
2018-12-13T07:26:57.486Z,3.53
2018-12-13T07:29:30.302Z,4.30
2018-12-13T07:32:03.142Z,5.80
2018-12-13T07:34:35.962Z,11.13
2018-12-13T07:37:09.508Z,15.47
2018-12-13T07:39:42.360Z,13.37
2018-12-13T07:42:15.166Z,10.07
2018-12-13T07:44:48.010Z,9.13
2018-12-13T07:47:20.903Z,8.73
2018-12-13T07:49:53.790Z,8.30
2018-12-13T07:52:26.726Z,17.10
2018-12-13T07:54:59.581Z,16.90
2018-12-13T08:00:57.869Z,18.83
2018-12-13T08:06:51.727Z,16.07
2018-12-13T08:09:24.332Z,13.87
2018-12-13T08:15:17.612Z,12.63
2018-12-13T08:17:50.381Z,9.93
2018-12-13T08:20:23.187Z,8.47
2018-12-13T08:22:55.929Z,10.87
2018-12-13T08:25:28.743Z,18.80
2018-12-13T08:28:01.965Z,28.03
2018-12-13T08:33:56.044Z,21.70
2018-12-13T08:36:28.899Z,21.77
2018-12-13T08:39:48.801Z,30.43
2018-12-13T08:42:21.349Z,27.63
2018-12-13T08:44:53.477Z,27.77
2018-12-13T08:47:26.105Z,27.33
2018-12-13T08:49:58.262Z,22.83
2018-12-13T08:53:09.013Z,19.47
2018-12-13T08:55:41.523Z,18.53
2018-12-13T08:58:14.108Z,16.13
2018-12-13T09:04:07.678Z,13.80
2018-12-13T09:06:40.523Z,13.27
2018-12-13T09:12:33.711Z,13.90
2018-12-13T09:15:05.878Z,14.77
2018-12-13T09:17:38.058Z,16.30
2018-12-13T09:20:10.364Z,18.00
2018-12-13T09:26:03.966Z,17.73
2018-12-13T09:28:36.483Z,17.00
2018-12-13T09:31:09.005Z,15.03
2018-12-13T09:33:41.511Z,14.57
2018-12-13T09:36:14.253Z,13.87
2018-12-13T09:38:47.612Z,14.10
2018-12-13T09:41:20.114Z,14.13
2018-12-13T09:43:52.901Z,12.73
2018-12-13T09:46:25.381Z,11.33
2018-12-13T09:48:57.862Z,15.47
2018-12-13T09:51:30.359Z,14.97
2018-12-13T09:54:03.661Z,13.93
2018-12-13T09:56:36.255Z,13.30
2018-12-13T09:59:08.755Z,12.30
2018-12-13T10:01:41.695Z,12.87
2018-12-13T10:04:14.249Z,12.20
2018-12-13T10:06:46.844Z,12.03
2018-12-13T10:09:19.365Z,12.30
2018-12-13T10:11:51.896Z,11.63
2018-12-13T10:14:24.365Z,12.30
2018-12-13T10:16:57.206Z,12.83
2018-12-13T10:19:29.675Z,14.47
2018-12-13T10:22:02.163Z,13.93
2018-12-13T10:24:34.980Z,14.63
2018-12-13T10:27:07.463Z,14.67
2018-12-13T10:29:39.966Z,14.83
2018-12-13T10:32:12.506Z,15.60
2018-12-13T10:34:45.040Z,17.00
2018-12-13T10:37:17.598Z,18.23
2018-12-13T10:39:50.212Z,17.43
2018-12-13T10:42:22.689Z,16.93
2018-12-13T10:44:55.611Z,16.80
2018-12-13T10:47:28.095Z,18.73
2018-12-13T10:53:20.813Z,19.50
2018-12-13T10:55:52.965Z,20.37
2018-12-13T10:58:25.187Z,19.90
2018-12-13T11:01:01.738Z,19.63
2018-12-13T11:03:37.204Z,21.53
2018-12-13T11:06:09.402Z,22.43
2018-12-13T11:08:41.660Z,22.37
2018-12-13T11:11:13.893Z,20.37
2018-12-13T11:13:48.294Z,20.67
2018-12-13T11:16:20.563Z,21.17
2018-12-13T11:18:53.344Z,28.30
2018-12-13T11:21:25.928Z,24.80
2018-12-13T11:23:58.114Z,21.07
2018-12-13T11:26:30.313Z,21.63
2018-12-13T11:29:36.967Z,34.23
2018-12-13T11:32:09.160Z,62.37
2018-12-13T11:34:41.348Z,46.63
2018-12-13T11:37:13.566Z,38.77
2018-12-13T11:39:45.859Z,38.07
2018-12-13T11:42:18.136Z,29.73
2018-12-13T11:44:50.445Z,26.67
2018-12-13T11:47:22.989Z,28.57
2018-12-13T11:49:55.207Z,26.47
2018-12-13T11:52:27.721Z,39.03
2018-12-13T11:55:02.860Z,23.97
2018-12-13T11:57:35.343Z,50.30
2018-12-13T12:00:08.482Z,70.90
2018-12-13T12:02:41.773Z,68.27
2018-12-13T12:05:13.954Z,73.87
2018-12-13T12:07:47.126Z,69.20
2018-12-13T12:10:21.128Z,59.27
2018-12-13T12:12:53.419Z,48.10
2018-12-13T12:15:25.676Z,40.70
2018-12-13T12:17:57.755Z,34.70
2018-12-13T12:20:29.991Z,34.97
2018-12-13T12:23:02.988Z,31.97
2018-12-13T12:25:35.241Z,24.00
2018-12-13T12:28:08.624Z,29.40
2018-12-13T12:30:46.848Z,27.90
2018-12-13T12:33:19.252Z,30.40
2018-12-13T12:35:51.498Z,31.87
2018-12-13T12:38:24.736Z,29.60
2018-12-13T12:40:56.989Z,26.97
2018-12-13T12:43:29.704Z,27.07
2018-12-13T12:46:02.826Z,26.93
2018-12-13T12:48:35.380Z,26.23
2018-12-13T12:51:09.395Z,25.17
2018-12-13T12:53:42.328Z,20.40
2018-12-13T12:56:16.103Z,18.40
2018-12-13T12:58:48.332Z,18.97
2018-12-13T13:04:44.146Z,18.37
2018-12-13T13:07:17.259Z,19.57
2018-12-13T13:13:21.099Z,15.73
2018-12-13T13:15:54.500Z,14.97
2018-12-13T13:18:27.334Z,14.47
2018-12-13T13:21:00.221Z,13.00
2018-12-13T13:23:34.060Z,15.17
2018-12-13T13:26:08.668Z,14.93
2018-12-13T13:28:41.561Z,17.70
2018-12-13T13:34:34.999Z,15.70
2018-12-13T13:37:07.420Z,17.53
2018-12-13T13:39:39.770Z,19.77
2018-12-13T13:45:33.523Z,22.03
2018-12-13T13:48:05.887Z,19.17
2018-12-13T13:50:38.352Z,16.37
2018-12-13T13:53:10.669Z,17.23
2018-12-13T13:55:42.922Z,12.60
2018-12-13T13:58:15.120Z,15.83
2018-12-13T14:00:47.442Z,16.67
2018-12-13T14:03:19.661Z,17.17
2018-12-13T14:05:51.950Z,16.27
2018-12-13T14:08:24.659Z,16.63
2018-12-13T14:10:57.706Z,15.50
2018-12-13T14:13:29.961Z,20.03
2018-12-13T14:16:02.267Z,19.47
2018-12-13T14:18:35.070Z,21.43
2018-12-13T14:21:07.401Z,16.40
2018-12-13T14:23:39.681Z,15.23
2018-12-13T14:26:12.002Z,10.00
2018-12-13T14:28:47.478Z,9.60
2018-12-13T14:31:20.187Z,9.73
2018-12-13T14:33:52.640Z,9.10
2018-12-13T14:36:24.966Z,9.97
2018-12-13T14:38:57.333Z,5.80
2018-12-13T14:41:30.341Z,6.00
2018-12-13T14:44:02.679Z,3.87
2018-12-13T14:46:35.662Z,4.77
2018-12-13T14:49:08.084Z,4.33
2018-12-13T14:51:40.688Z,6.87
2018-12-13T14:54:18.079Z,6.43
2018-12-13T14:56:51.289Z,9.50
2018-12-13T14:59:23.708Z,8.13
2018-12-13T15:01:56.042Z,9.33
2018-12-13T15:04:31.484Z,9.80
2018-12-13T15:07:03.869Z,12.67
2018-12-13T15:09:36.570Z,7.77
2018-12-13T15:12:09.915Z,7.10
2018-12-13T15:14:42.803Z,9.43
2018-12-13T15:17:15.178Z,7.50
2018-12-13T15:19:48.167Z,7.90
2018-12-13T15:25:43.567Z,6.83
2018-12-13T15:28:17.929Z,6.72
2018-12-13T15:30:55.506Z,13.77
2018-12-13T15:33:28.548Z,13.50
2018-12-13T15:36:01.445Z,11.07
2018-12-13T15:38:34.465Z,8.43
2018-12-13T15:41:08.606Z,4.30
2018-12-13T15:47:05.417Z,5.13
2018-12-13T15:49:38.065Z,17.23
2018-12-13T15:52:56.069Z,15.90
2018-12-13T15:55:30.056Z,9.57
2018-12-13T15:58:03.135Z,9.63
2018-12-13T16:00:37.170Z,9.33
2018-12-13T16:03:10.341Z,12.80
2018-12-13T16:05:54.519Z,9.67
2018-12-13T16:08:27.784Z,7.08
2018-12-13T16:11:01.656Z,18.00
2018-12-13T16:13:38.038Z,4.03
2018-12-13T16:16:20.012Z,5.87
2018-12-13T16:18:53.536Z,11.43
2018-12-13T16:21:36.641Z,5.37
2018-12-13T16:24:14.333Z,4.73
2018-12-13T16:26:51.248Z,8.60
2018-12-13T16:32:51.720Z,12.33
2018-12-13T16:35:24.205Z,6.67
2018-12-13T16:38:01.171Z,6.10
2018-12-13T16:40:33.650Z,9.55
2018-12-13T16:43:06.659Z,5.53
2018-12-13T16:45:40.032Z,11.03
2018-12-13T16:48:12.527Z,8.85
2018-12-13T16:50:45.500Z,4.92
2018-12-13T16:53:18.644Z,12.70
2018-12-13T16:55:51.604Z,5.42
2018-12-13T16:58:27.148Z,5.83
2018-12-13T17:01:02.581Z,8.93
2018-12-13T17:03:44.596Z,5.70
2018-12-13T17:06:20.430Z,12.40
2018-12-13T17:08:56.655Z,5.10
2018-12-13T17:11:28.969Z,6.53
2018-12-13T17:14:02.586Z,10.20
2018-12-13T17:16:35.100Z,5.85
2018-12-13T17:19:08.745Z,4.65
2018-12-13T17:25:02.565Z,4.62
2018-12-13T17:30:57.700Z,4.85
2018-12-13T17:33:30.070Z,3.92
2018-12-13T17:36:03.342Z,3.40
2018-12-13T17:38:37.314Z,3.42
2018-12-13T17:41:14.128Z,5.92
2018-12-13T17:43:46.580Z,13.75
2018-12-13T17:46:20.721Z,5.10
2018-12-13T17:48:55.683Z,11.88
2018-12-13T17:51:30.838Z,6.22
2018-12-13T17:54:05.415Z,3.60
2018-12-13T17:56:38.591Z,3.22
2018-12-13T17:59:13.847Z,7.28
2018-12-13T18:01:47.965Z,6.78
2018-12-13T18:04:21.041Z,3.67
2018-12-13T18:06:57.301Z,4.22
2018-12-13T18:09:31.157Z,4.70
2018-12-13T18:12:05.674Z,5.03
2018-12-13T18:14:38.200Z,8.23
2018-12-13T18:17:13.982Z,8.33
2018-12-13T18:19:52.748Z,4.37
2018-12-13T18:22:26.369Z,3.15
2018-12-13T18:24:59.820Z,21.55
2018-12-13T18:27:32.402Z,8.00
2018-12-13T18:30:06.990Z,3.47
2018-12-13T18:32:40.364Z,8.25
2018-12-13T18:35:12.884Z,10.20
2018-12-13T18:37:46.063Z,5.42
2018-12-13T18:40:19.826Z,8.50
2018-12-13T18:42:52.927Z,7.72
2018-12-13T18:45:30.177Z,6.10
2018-12-13T18:48:03.961Z,5.58
2018-12-13T18:50:37.576Z,16.50
2018-12-13T18:53:11.661Z,3.92
2018-12-13T18:55:44.168Z,6.62
2018-12-13T18:58:17.306Z,32.78
2018-12-13T19:00:55.516Z,12.47
2018-12-13T19:03:28.659Z,3.80
2018-12-13T19:06:01.299Z,7.37
2018-12-13T19:08:34.614Z,8.33
2018-12-13T19:13:46.183Z,5.20
2018-12-13T19:16:18.677Z,5.92
2018-12-13T19:18:51.804Z,19.37
2018-12-13T19:21:24.171Z,6.42
2018-12-13T19:23:56.765Z,5.08
2018-12-13T19:26:30.229Z,7.58
2018-12-13T19:29:03.274Z,9.35
2018-12-13T19:31:35.900Z,12.63
2018-12-13T19:34:09.158Z,4.42
2018-12-13T19:36:42.113Z,5.35
2018-12-13T19:39:20.276Z,4.40
2018-12-13T19:41:54.232Z,6.78
2018-12-13T19:44:27.308Z,27.50
2018-12-13T19:46:59.846Z,5.17
2018-12-13T19:49:34.046Z,5.72
2018-12-13T19:52:06.790Z,5.75
2018-12-13T19:54:40.015Z,12.85
2018-12-13T19:57:13.470Z,7.10
2018-12-13T19:59:46.732Z,16.35
2018-12-13T20:02:19.254Z,10.35
2018-12-13T20:04:52.375Z,13.78
2018-12-13T20:07:25.844Z,15.45
2018-12-13T20:10:01.389Z,10.23
2018-12-13T20:12:36.776Z,6.33
2018-12-13T20:15:10.602Z,4.53
2018-12-13T20:17:43.248Z,7.10
2018-12-13T20:20:19.674Z,10.45
2018-12-13T20:22:55.731Z,5.67
2018-12-13T20:25:29.756Z,8.95
2018-12-13T20:28:02.806Z,11.18
2018-12-13T20:30:39.658Z,5.20
2018-12-13T20:33:15.085Z,6.65
2018-12-13T20:35:50.504Z,8.83
2018-12-13T20:38:24.587Z,7.87
2018-12-13T20:41:01.061Z,7.40
2018-12-13T20:43:34.338Z,7.47
2018-12-13T20:46:07.383Z,9.78
2018-12-13T20:48:42.177Z,8.00
2018-12-13T20:51:17.077Z,5.05
2018-12-13T20:53:50.651Z,6.05
2018-12-13T20:56:23.531Z,16.75
2018-12-13T20:58:56.999Z,13.08
2018-12-13T21:01:48.862Z,11.90
2018-12-13T21:04:27.270Z,15.40
2018-12-13T21:07:04.760Z,6.72
2018-12-13T21:09:37.282Z,8.58
2018-12-13T21:12:11.474Z,7.00
2018-12-13T21:14:45.848Z,6.83
2018-12-13T21:17:19.798Z,7.95
2018-12-13T21:19:54.662Z,8.25
2018-12-13T21:22:28.430Z,10.08
2018-12-13T21:25:03.514Z,14.17
2018-12-13T21:27:40.949Z,19.90
2018-12-13T21:30:13.555Z,33.10
2018-12-13T21:32:46.963Z,26.30
2018-12-13T21:35:19.451Z,27.42
2018-12-13T21:37:55.104Z,20.27
2018-12-13T21:40:42.511Z,21.60
2018-12-13T21:43:21.374Z,13.53
2018-12-13T21:45:57.766Z,10.82
2018-12-13T21:48:33.997Z,15.43
2018-12-13T21:54:30.345Z,22.67
2018-12-13T22:00:54.620Z,29.73
2018-12-13T22:03:28.071Z,18.33
2018-12-13T22:06:01.715Z,17.35
2018-12-13T22:08:35.704Z,13.43
2018-12-13T22:11:09.103Z,25.67
2018-12-13T22:17:03.268Z,14.47
2018-12-13T22:19:37.950Z,29.43
2018-12-13T22:22:12.285Z,23.47
2018-12-13T22:24:48.203Z,12.93
2018-12-13T22:27:23.669Z,16.43
2018-12-13T22:29:56.312Z,22.10
2018-12-13T22:32:30.248Z,28.87
2018-12-13T22:35:16.915Z,20.23
2018-12-13T22:37:53.053Z,30.37
2018-12-13T22:40:26.629Z,25.33
2018-12-13T22:43:00.562Z,23.37
2018-12-13T22:45:33.108Z,22.30
2018-12-13T22:48:20.951Z,24.63
2018-12-13T22:51:55.985Z,24.87
2018-12-13T22:54:30.051Z,27.53
2018-12-13T22:57:03.351Z,26.97
2018-12-13T22:59:36.786Z,27.57
2018-12-13T23:02:09.565Z,21.27
2018-12-13T23:04:49.310Z,40.50
2018-12-13T23:07:23.009Z,24.67
2018-12-13T23:09:56.676Z,50.43
2018-12-13T23:12:29.864Z,35.33
2018-12-13T23:15:02.525Z,26.13
2018-12-13T23:17:35.053Z,26.67
2018-12-13T23:20:10.675Z,25.33
2018-12-13T23:22:44.663Z,29.30
2018-12-13T23:25:17.830Z,22.27
2018-12-13T23:27:50.826Z,39.63
2018-12-13T23:30:24.140Z,25.40
2018-12-13T23:32:56.694Z,29.23
2018-12-13T23:35:42.191Z,24.67
2018-12-13T23:38:15.078Z,24.00
2018-12-13T23:40:48.498Z,23.37
2018-12-13T23:43:21.057Z,36.30
2018-12-13T23:46:01.088Z,31.03
2018-12-13T23:48:34.272Z,35.97
2018-12-13T23:51:08.813Z,26.67
2018-12-13T23:53:41.935Z,24.53
2018-12-13T23:56:15.019Z,38.13
2018-12-13T23:58:49.381Z,26.10
